| time (UTC) | temp C | wind direction | speed KPH | gust KPH | rain 1hr cm | rain 24hr cm | rain mn cm | humidity % | barometer mb |
| 20260510175708 | 30 | 270 | 4.8 | 4.8 | 0.00 | 0.00 | 0.00 | 35 | 1014.0 |
| 20260510175204 | 29 | 245 | 3.2 | 9.7 | 0.00 | 0.00 | 0.00 | 38 | 1014.0 |
| 20260510174701 | 30 | 15 | 0.0 | 6.4 | 0.00 | 0.00 | 0.00 | 34 | 1013.9 |
| 20260510174159 | 29 | 299 | 8.0 | 9.7 | 0.00 | 0.00 | 0.00 | 33 | 1014.0 |
| 20260510173655 | 28 | 169 | 4.8 | 9.7 | 0.00 | 0.00 | 0.00 | 34 | 1013.8 |
| 20260510173151 | 28 | 283 | 1.6 | 8.0 | 0.00 | 0.00 | 0.00 | 33 | 1013.9 |
| 20260510172646 | 29 | 188 | 3.2 | 4.8 | 0.00 | 0.00 | 0.00 | 33 | 1013.9 |
| 20260510172143 | 29 | 270 | 3.2 | 9.7 | 0.00 | 0.00 | 0.00 | 34 | 1014.0 |
| 20260510171640 | 29 | 235 | 6.4 | 17.7 | 0.00 | 0.00 | 0.00 | 37 | 1014.3 |
| 20260510171137 | 29 | 220 | 8.0 | 16.1 | 0.00 | 0.00 | 0.00 | 37 | 1014.2 |
| 20260510170633 | 29 | 270 | 3.2 | 8.0 | 0.00 | 0.00 | 0.00 | 35 | 1014.5 |
| 20260510170130 | 29 | 255 | 0.0 | 4.8 | 0.00 | 0.00 | 0.00 | 36 | 1014.4 |
| 20260510165626 | 28 | 320 | 0.0 | 9.7 | 0.00 | 0.00 | 0.00 | 34 | 1014.5 |
| 20260510165121 | 29 | 286 | 1.6 | 4.8 | 0.00 | 0.00 | 0.00 | 35 | 1014.5 |
| 20260510164620 | 28 | 270 | 4.8 | 8.0 | 0.00 | 0.00 | 0.00 | 39 | 1014.6 |
| 20260510164116 | 28 | 174 | 1.6 | 8.0 | 0.00 | 0.00 | 0.00 | 38 | 1014.6 |
| 20260510163611 | 28 | 131 | 0.0 | 8.0 | 0.00 | 0.00 | 0.00 | 39 | 1014.3 |
| 20260510163108 | 28 | 90 | 0.0 | 4.8 | 0.00 | 0.00 | 0.00 | 39 | 1014.4 |
| 20260510162603 | 27 | 90 | 4.8 | 4.8 | 0.00 | 0.00 | 0.00 | 40 | 1014.5 |
| 20260510162059 | 27 | 11 | 3.2 | 6.4 | 0.00 | 0.00 | 0.00 | 39 | 1014.5 |
| 20260510161555 | 27 | 23 | 4.8 | 6.4 | 0.00 | 0.00 | 0.00 | 37 | 1014.7 |
| 20260510161052 | 27 | 294 | 0.0 | 6.4 | 0.00 | 0.00 | 0.00 | 37 | 1014.6 |
| 20260510160549 | 28 | 274 | 4.8 | 9.7 | 0.00 | 0.00 | 0.00 | 41 | 1014.7 |
| 20260510160048 | 29 | 214 | 3.2 | 4.8 | 0.00 | 0.00 | 0.00 | 40 | 1014.8 |
| 20260510155545 | 28 | 248 | 3.2 | 6.4 | 0.00 | 0.00 | 0.00 | 42 | 1014.7 |
| 20260510155042 | 28 | 196 | 0.0 | 3.2 | 0.00 | 0.00 | 0.00 | 40 | 1014.9 |
| 20260510154537 | 27 | 81 | 1.6 | 6.4 | 0.00 | 0.00 | 0.00 | 42 | 1014.7 |
| 20260510154033 | 26 | 192 | 3.2 | 12.9 | 0.00 | 0.00 | 0.00 | 43 | 1014.9 |
| 20260510153528 | 27 | 212 | 8.0 | 8.0 | 0.00 | 0.00 | 0.00 | 44 | 1014.8 |
| 20260510153025 | 26 | 241 | 4.8 | 6.4 | 0.00 | 0.00 | 0.00 | 43 | 1014.8 |
| 20260510152522 | 27 | 254 | 4.8 | 11.3 | 0.00 | 0.00 | 0.00 | 42 | 1014.9 |
| 20260510152018 | 27 | 253 | 0.0 | 6.4 | 0.00 | 0.00 | 0.00 | 42 | 1015.1 |
| 20260510151515 | 27 | 195 | 0.0 | 6.4 | 0.00 | 0.00 | 0.00 | 43 | 1015.1 |
| 20260510151013 | 26 | 206 | 3.2 | 8.0 | 0.00 | 0.00 | 0.00 | 44 | 1015.0 |
| 20260510150507 | 27 | 324 | 0.0 | 3.2 | 0.00 | 0.00 | 0.00 | 43 | 1015.1 |
| 20260510150004 | 26 | 234 | 4.8 | 4.8 | 0.00 | 0.00 | 0.00 | 43 | 1015.0 |
| 20260510145501 | 27 | 150 | 0.0 | 0.0 | 0.00 | 0.00 | 0.00 | 45 | 1015.0 |
| 20260510144956 | 26 | 266 | 4.8 | 6.4 | 0.00 | 0.00 | 0.00 | 45 | 1015.0 |
| 20260510144453 | 26 | 231 | 3.2 | 6.4 | 0.00 | 0.00 | 0.00 | 47 | 1015.0 |
| 20260510143949 | 25 | 217 | 4.8 | 4.8 | 0.00 | 0.00 | 0.00 | 47 | 1014.9 |
| 20260510143439 | 25 | 29 | 1.6 | 1.6 | 0.00 | 0.00 | 0.00 | 47 | 1014.9 |
| 20260510142936 | 26 | 69 | 1.6 | 4.8 | 0.00 | 0.00 | 0.00 | 46 | 1014.9 |
| 20260510142433 | 25 | 96 | 3.2 | 3.2 | 0.00 | 0.00 | 0.00 | 49 | 1014.8 |
| 20260510141929 | 26 | 297 | 0.0 | 1.6 | 0.00 | 0.00 | 0.00 | 46 | 1014.7 |
| 20260510141426 | 26 | 258 | 3.2 | 4.8 | 0.00 | 0.00 | 0.00 | 48 | 1015.0 |
| 20260510140923 | 25 | 6 | 0.0 | 1.6 | 0.00 | 0.00 | 0.00 | 50 | 1015.0 |
| 20260510140414 | 25 | 198 | 1.6 | 4.8 | 0.00 | 0.00 | 0.00 | 52 | 1014.8 |
| 20260510135913 | 25 | 270 | 0.0 | 4.8 | 0.00 | 0.00 | 0.00 | 52 | 1014.9 |
| 20260510135410 | 25 | 270 | 1.6 | 3.2 | 0.00 | 0.00 | 0.00 | 52 | 1014.7 |
| 20260510134907 | 25 | 257 | 1.6 | 4.8 | 0.00 | 0.00 | 0.00 | 55 | 1014.8 |
| 20260510134403 | 24 | 251 | 1.6 | 4.8 | 0.00 | 0.00 | 0.00 | 53 | 1014.7 |
| 20260510133859 | 24 | 212 | 0.0 | 3.2 | 0.00 | 0.00 | 0.00 | 55 | 1014.9 |
| 20260510133356 | 23 | 168 | 3.2 | 4.8 | 0.00 | 0.00 | 0.00 | 55 | 1014.9 |
| 20260510132851 | 22 | 220 | 4.8 | 8.0 | 0.00 | 0.00 | 0.00 | 58 | 1014.9 |
| 20260510132349 | 22 | 237 | 0.0 | 4.8 | 0.00 | 0.00 | 0.00 | 59 | 1014.9 |
| 20260510131846 | 23 | 14 | 0.0 | 4.8 | 0.00 | 0.00 | 0.00 | 59 | 1014.9 |
| 20260510131344 | 22 | 270 | 0.0 | 4.8 | 0.00 | 0.00 | 0.00 | 62 | 1014.8 |
| 20260510130840 | 22 | 187 | 1.6 | 3.2 | 0.00 | 0.00 | 0.00 | 60 | 1014.8 |
| 20260510130337 | 22 | 262 | 0.0 | 4.8 | 0.00 | 0.00 | 0.00 | 64 | 1014.7 |
| 20260510125834 | 21 | 270 | 0.0 | 3.2 | 0.00 | 0.00 | 0.00 | 65 | 1014.6 |
| 20260510125330 | 21 | 243 | 0.0 | 4.8 | 0.00 | 0.00 | 0.00 | 67 | 1014.7 |
| 20260510124827 | 21 | 259 | 4.8 | 6.4 | 0.00 | 0.00 | 0.00 | 69 | 1014.6 |
| 20260510124324 | 20 | 203 | 3.2 | 4.8 | 0.00 | 0.00 | 0.00 | 71 | 1014.7 |
| 20260510123819 | 20 | 203 | 0.0 | 4.8 | 0.00 | 0.00 | 0.00 | 72 | 1014.8 |
| 20260510123315 | 20 | 237 | 3.2 | 6.4 | 0.00 | 0.00 | 0.00 | 73 | 1014.7 |
| 20260510122812 | 20 | 240 | 0.0 | 3.2 | 0.00 | 0.00 | 0.00 | 75 | 1014.6 |
| 20260510122308 | 20 | 254 | 0.0 | 3.2 | 0.00 | 0.00 | 0.00 | 76 | 1014.4 |
| 20260510121804 | 19 | 195 | 0.0 | 3.2 | 0.00 | 0.00 | 0.00 | 79 | 1014.4 |
| 20260510121302 | 20 | 220 | 0.0 | 3.2 | 0.00 | 0.00 | 0.00 | 79 | 1014.2 |
| 20260510120759 | 19 | 270 | 1.6 | 3.2 | 0.00 | 0.00 | 0.00 | 80 | 1014.1 |
| 20260510120255 | 19 | 172 | 0.0 | 1.6 | 0.00 | 0.00 | 0.00 | 83 | 1014.1 |
| 20260510115751 | 18 | 180 | 0.0 | 1.6 | 0.00 | 0.00 | 0.00 | 90 | 1014.1 |
| 20260510115250 | 17 | 180 | 0.0 | 3.2 | 0.00 | 0.00 | 0.00 | 92 | 1014.1 |
| 20260510114750 | 16 | 192 | 0.0 | 1.6 | 0.00 | 0.00 | 0.00 | 94 | 1013.9 |
| 20260510114248 | 16 | 172 | 0.0 | 0.0 | 0.00 | 0.00 | 0.00 | 96 | 1013.8 |
| 20260510113742 | 16 | 180 | 0.0 | 1.6 | 0.00 | 0.00 | 0.00 | 97 | 1013.9 |
| 20260510113240 | 16 | 106 | 0.0 | 1.6 | 0.00 | 0.00 | 0.00 | 99 | 1013.8 |
| 20260510112736 | 16 | 172 | 0.0 | 0.0 | 0.00 | 0.00 | 0.00 | 99 | 1013.7 |
| 20260510112233 | 16 | 195 | 0.0 | 0.0 | 0.00 | 0.00 | 0.00 | 99 | 1013.7 |
| 20260510111728 | 15 | 203 | 0.0 | 0.0 | 0.00 | 0.00 | 0.00 | 99 | 1013.5 |
| 20260510111226 | 15 | 203 | 0.0 | 0.0 | 0.00 | 0.00 | 0.00 | 99 | 1013.4 |
| 20260510110725 | 15 | 203 | 0.0 | 0.0 | 0.00 | 0.00 | 0.00 | 99 | 1013.5 |
| 20260510110224 | 12 | 203 | 0.0 | 0.0 | 0.00 | 0.00 | 0.00 | 99 | 1013.3 |
| 20260510105723 | 12 | 165 | 0.0 | 0.0 | 0.00 | 0.00 | 0.00 | 99 | 1013.3 |
| 20260510105218 | 12 | 165 | 0.0 | 0.0 | 0.00 | 0.00 | 0.00 | 99 | 1013.4 |
| 20260510104715 | 12 | 172 | 0.0 | 0.0 | 0.00 | 0.00 | 0.00 | 99 | 1013.3 |
| 20260510104212 | 12 | 195 | 0.0 | 1.6 | 0.00 | 0.00 | 0.00 | 99 | 1013.1 |
| 20260510103709 | 12 | 195 | 0.0 | 1.6 | 0.00 | 0.00 | 0.00 | 99 | 1013.0 |
| 20260510103206 | 12 | 180 | 0.0 | 0.0 | 0.00 | 0.00 | 0.00 | 99 | 1013.1 |
| 20260510102705 | 12 | 180 | 0.0 | 1.6 | 0.00 | 0.00 | 0.00 | 99 | 1013.0 |
| 20260510102201 | 12 | 175 | 0.0 | 1.6 | 0.00 | 0.00 | 0.00 | 99 | 1012.9 |
| 20260510101659 | 12 | 98 | 0.0 | 0.0 | 0.00 | 0.00 | 0.00 | 99 | 1012.9 |
| 20260510101158 | 12 | 98 | 0.0 | 0.0 | 0.00 | 0.00 | 0.00 | 99 | 1012.7 |
| 20260510100653 | 12 | 105 | 1.6 | 3.2 | 0.00 | 0.00 | 0.00 | 99 | 1012.7 |
| 20260510100151 | 12 | 90 | 0.0 | 1.6 | 0.00 | 0.00 | 0.00 | 99 | 1012.5 |
| 20260510095646 | 12 | 99 | 0.0 | 0.0 | 0.00 | 0.00 | 0.00 | 99 | 1012.4 |
| 20260510095141 | 12 | 74 | 0.0 | 1.6 | 0.00 | 0.00 | 0.00 | 99 | 1012.2 |
| 20260510094640 | 12 | 84 | 0.0 | 0.0 | 0.00 | 0.00 | 0.00 | 99 | 1012.4 |
| 20260510094136 | 12 | 40 | 0.0 | 3.2 | 0.00 | 0.00 | 0.00 | 99 | 1012.4 |
| 20260510093632 | 12 | 74 | 0.0 | 0.0 | 0.00 | 0.00 | 0.00 | 99 | 1012.5 |
| 20260510093130 | 12 | 74 | 0.0 | 0.0 | 0.00 | 0.00 | 0.00 | 99 | 1012.5 |
| 20260510092626 | 12 | 90 | 0.0 | 1.6 | 0.00 | 0.00 | 0.00 | 99 | 1012.2 |
| 20260510092121 | 12 | 172 | 0.0 | 0.0 | 0.00 | 0.00 | 0.00 | 99 | 1012.3 |
| 20260510091617 | 12 | 172 | 0.0 | 0.0 | 0.00 | 0.00 | 0.00 | 99 | 1012.2 |
| 20260510091113 | 12 | 172 | 0.0 | 0.0 | 0.00 | 0.00 | 0.00 | 99 | 1012.2 |
| 20260510090611 | 12 | 172 | 0.0 | 0.0 | 0.00 | 0.00 | 0.00 | 99 | 1012.0 |
| 20260510090107 | 13 | 172 | 0.0 | 0.0 | 0.00 | 0.00 | 0.00 | 99 | 1012.0 |
| 20260510085602 | 13 | 172 | 0.0 | 0.0 | 0.00 | 0.00 | 0.00 | 99 | 1012.1 |
| 20260510085058 | 13 | 172 | 0.0 | 0.0 | 0.00 | 0.00 | 0.00 | 99 | 1012.2 |
| 20260510084554 | 13 | 172 | 0.0 | 0.0 | 0.00 | 0.00 | 0.00 | 99 | 1012.0 |
| 20260510084051 | 13 | 49 | 0.0 | 0.0 | 0.00 | 0.00 | 0.00 | 99 | 1011.9 |
| 20260510083548 | 13 | 49 | 0.0 | 0.0 | 0.00 | 0.00 | 0.00 | 99 | 1012.0 |
| 20260510083044 | 13 | 49 | 0.0 | 0.0 | 0.00 | 0.00 | 0.00 | 99 | 1012.0 |
| 20260510082541 | 13 | 49 | 0.0 | 0.0 | 0.00 | 0.00 | 0.00 | 98 | 1011.8 |
| 20260510082036 | 13 | 49 | 0.0 | 0.0 | 0.00 | 0.00 | 0.00 | 98 | 1011.9 |
| 20260510081531 | 13 | 49 | 0.0 | 0.0 | 0.00 | 0.00 | 0.00 | 98 | 1011.9 |
| 20260510081027 | 14 | 49 | 0.0 | 0.0 | 0.00 | 0.00 | 0.00 | 98 | 1011.8 |
| 20260510080526 | 14 | 99 | 0.0 | 0.0 | 0.00 | 0.00 | 0.00 | 98 | 1011.8 |
| 20260510080024 | 14 | 99 | 0.0 | 0.0 | 0.00 | 0.00 | 0.00 | 98 | 1011.9 |
| 20260510075521 | 14 | 105 | 0.0 | 0.0 | 0.00 | 0.00 | 0.00 | 97 | 1011.7 |
| 20260510075017 | 14 | 105 | 0.0 | 0.0 | 0.00 | 0.00 | 0.00 | 97 | 1011.8 |
| 20260510074516 | 14 | 105 | 0.0 | 0.0 | 0.00 | 0.00 | 0.00 | 97 | 1011.6 |
| 20260510074011 | 14 | 105 | 0.0 | 0.0 | 0.00 | 0.00 | 0.00 | 97 | 1011.7 |
| 20260510073507 | 15 | 105 | 0.0 | 3.2 | 0.00 | 0.00 | 0.00 | 97 | 1011.7 |
| 20260510073004 | 15 | 106 | 0.0 | 1.6 | 0.00 | 0.00 | 0.00 | 96 | 1011.6 |
| 20260510072500 | 15 | 90 | 0.0 | 0.0 | 0.00 | 0.00 | 0.00 | 96 | 1011.5 |
| 20260510071956 | 15 | 90 | 0.0 | 0.0 | 0.00 | 0.00 | 0.00 | 96 | 1011.7 |
| 20260510071452 | 15 | 90 | 0.0 | 0.0 | 0.00 | 0.00 | 0.00 | 95 | 1011.7 |
| 20260510070950 | 15 | 96 | 0.0 | 3.2 | 0.00 | 0.00 | 0.00 | 95 | 1011.5 |
| 20260510070447 | 15 | 180 | 0.0 | 3.2 | 0.00 | 0.00 | 0.00 | 95 | 1011.7 |
| 20260510065943 | 15 | 173 | 1.6 | 1.6 | 0.00 | 0.00 | 0.00 | 95 | 1011.5 |
| 20260510065440 | 15 | 0 | 0.0 | 0.0 | 0.00 | 0.00 | 0.00 | 94 | 1011.5 |
| 20260510064936 | 15 | 0 | 0.0 | 3.2 | 0.00 | 0.00 | 0.00 | 94 | 1011.6 |
| 20260510064434 | 15 | 246 | 0.0 | 0.0 | 0.00 | 0.00 | 0.00 | 93 | 1011.5 |
| 20260510063930 | 16 | 246 | 0.0 | 1.6 | 0.00 | 0.00 | 0.00 | 93 | 1011.7 |
| 20260510063426 | 16 | 195 | 0.0 | 0.0 | 0.00 | 0.00 | 0.00 | 93 | 1011.7 |
| 20260510062924 | 16 | 229 | 0.0 | 4.8 | 0.00 | 0.00 | 0.00 | 93 | 1011.6 |
| 20260510062419 | 16 | 234 | 0.0 | 1.6 | 0.00 | 0.00 | 0.00 | 93 | 1011.6 |
| 20260510061915 | 16 | 251 | 0.0 | 3.2 | 0.00 | 0.00 | 0.00 | 93 | 1011.5 |
| 20260510061412 | 16 | 194 | 0.0 | 3.2 | 0.00 | 0.00 | 0.00 | 92 | 1011.7 |
| 20260510060908 | 16 | 180 | 1.6 | 3.2 | 0.00 | 0.00 | 0.00 | 92 | 1011.6 |
| 20260510060405 | 16 | 180 | 1.6 | 1.6 | 0.00 | 0.00 | 0.00 | 92 | 1011.5 |
| 20260510055901 | 16 | 180 | 1.6 | 3.2 | 0.00 | 0.00 | 0.00 | 93 | 1011.5 |
| 20260510055356 | 16 | 169 | 0.0 | 3.2 | 0.00 | 0.00 | 0.00 | 93 | 1011.5 |
| 20260510054854 | 16 | 220 | 0.0 | 3.2 | 0.00 | 0.00 | 0.00 | 93 | 1011.6 |
| 20260510054350 | 16 | 185 | 0.0 | 4.8 | 0.00 | 0.00 | 0.00 | 93 | 1011.6 |
| 20260510053845 | 15 | 173 | 1.6 | 3.2 | 0.00 | 0.00 | 0.00 | 92 | 1011.7 |
| 20260510053341 | 15 | 90 | 0.0 | 0.0 | 0.00 | 0.00 | 0.00 | 92 | 1011.5 |
| 20260510052838 | 15 | 90 | 0.0 | 1.6 | 0.00 | 0.00 | 0.00 | 92 | 1011.6 |
| 20260510052333 | 15 | 83 | 1.6 | 3.2 | 0.00 | 0.00 | 0.00 | 92 | 1011.8 |
| 20260510051830 | 15 | 90 | 0.0 | 3.2 | 0.00 | 0.00 | 0.00 | 92 | 1011.7 |
| 20260510051327 | 15 | 90 | 0.0 | 0.0 | 0.00 | 0.00 | 0.00 | 91 | 1011.6 |
| 20260510050824 | 15 | 81 | 0.0 | 0.0 | 0.00 | 0.00 | 0.00 | 91 | 1011.9 |
| 20260510050320 | 16 | 261 | 0.0 | 3.2 | 0.00 | 0.00 | 0.00 | 91 | 1011.8 |
| 20260510045817 | 15 | 166 | 0.0 | 0.0 | 0.00 | 0.00 | 0.00 | 91 | 1011.7 |
| 20260510045314 | 15 | 82 | 0.0 | 3.2 | 0.00 | 0.00 | 0.00 | 91 | 1011.9 |
| 20260510044811 | 15 | 188 | 3.2 | 3.2 | 0.00 | 0.00 | 0.00 | 91 | 1011.7 |
| 20260510044308 | 15 | 195 | 0.0 | 3.2 | 0.00 | 0.00 | 0.00 | 91 | 1011.9 |
| 20260510043804 | 15 | 172 | 0.0 | 0.0 | 0.00 | 0.00 | 0.00 | 90 | 1011.7 |
| 20260510043300 | 15 | 117 | 0.0 | 0.0 | 0.00 | 0.00 | 0.00 | 90 | 1011.8 |
| 20260510042758 | 15 | 254 | 0.0 | 3.2 | 0.00 | 0.00 | 0.00 | 90 | 1011.7 |
| 20260510042253 | 15 | 126 | 0.0 | 1.6 | 0.00 | 0.00 | 0.00 | 90 | 1011.7 |
| 20260510041750 | 15 | 105 | 0.0 | 0.0 | 0.00 | 0.00 | 0.00 | 89 | 1011.9 |
| 20260510041248 | 15 | 105 | 0.0 | 0.0 | 0.00 | 0.00 | 0.00 | 89 | 1011.8 |
| 20260510040745 | 15 | 105 | 0.0 | 3.2 | 0.00 | 0.00 | 0.00 | 89 | 1011.7 |
| 20260510040242 | 15 | 90 | 0.0 | 3.2 | 0.00 | 0.00 | 0.00 | 88 | 1011.6 |
| 20260510035737 | 16 | 90 | 0.0 | 0.0 | 0.00 | 0.00 | 0.00 | 88 | 1011.6 |
| 20260510035233 | 16 | 98 | 0.0 | 0.0 | 0.00 | 0.00 | 0.00 | 88 | 1011.5 |
| 20260510034729 | 16 | 98 | 0.0 | 0.0 | 0.00 | 0.00 | 0.00 | 88 | 1011.5 |
| 20260510034228 | 16 | 98 | 0.0 | 0.0 | 0.00 | 0.00 | 0.00 | 87 | 1011.3 |
| 20260510033723 | 16 | 98 | 0.0 | 0.0 | 0.00 | 0.00 | 0.00 | 86 | 1011.4 |
| 20260510033221 | 16 | 98 | 0.0 | 0.0 | 0.00 | 0.00 | 0.00 | 86 | 1011.4 |
| 20260510032717 | 16 | 90 | 0.0 | 3.2 | 0.00 | 0.00 | 0.00 | 86 | 1011.3 |
| 20260510032213 | 16 | 97 | 0.0 | 3.2 | 0.00 | 0.00 | 0.00 | 86 | 1011.4 |
| 20260510031708 | 16 | 188 | 0.0 | 0.0 | 0.00 | 0.00 | 0.00 | 86 | 1011.4 |
| 20260510031204 | 16 | 188 | 0.0 | 0.0 | 0.00 | 0.00 | 0.00 | 86 | 1011.4 |
| 20260510030704 | 16 | 188 | 0.0 | 0.0 | 0.00 | 0.00 | 0.00 | 85 | 1011.2 |
| 20260510030202 | 16 | 106 | 0.0 | 1.6 | 0.00 | 0.00 | 0.00 | 85 | 1011.3 |
| 20260510025659 | 16 | 106 | 0.0 | 1.6 | 0.00 | 0.00 | 0.00 | 85 | 1011.2 |
| 20260510025156 | 16 | 99 | 0.0 | 1.6 | 0.00 | 0.00 | 0.00 | 85 | 1011.2 |
| 20260510024653 | 16 | 90 | 0.0 | 0.0 | 0.00 | 0.00 | 0.00 | 85 | 1011.3 |
| 20260510024149 | 16 | 188 | 0.0 | 0.0 | 0.00 | 0.00 | 0.00 | 85 | 1011.3 |
| 20260510023645 | 16 | 188 | 0.0 | 0.0 | 0.00 | 0.00 | 0.00 | 84 | 1011.1 |
| 20260510023142 | 16 | 188 | 0.0 | 0.0 | 0.00 | 0.00 | 0.00 | 84 | 1011.1 |
| 20260510022637 | 16 | 200 | 0.0 | 0.0 | 0.00 | 0.00 | 0.00 | 83 | 1011.1 |
| 20260510022132 | 16 | 200 | 0.0 | 0.0 | 0.00 | 0.00 | 0.00 | 83 | 1011.1 |
| 20260510021628 | 16 | 200 | 0.0 | 0.0 | 0.00 | 0.00 | 0.00 | 83 | 1010.9 |
| 20260510021126 | 16 | 200 | 0.0 | 0.0 | 0.00 | 0.00 | 0.00 | 82 | 1010.8 |
| 20260510020620 | 16 | 200 | 0.0 | 1.6 | 0.00 | 0.00 | 0.00 | 82 | 1010.9 |
| 20260510020115 | 16 | 188 | 0.0 | 0.0 | 0.00 | 0.00 | 0.00 | 82 | 1010.5 |
| 20260510015612 | 16 | 188 | 0.0 | 0.0 | 0.00 | 0.00 | 0.00 | 81 | 1010.5 |
| 20260510015108 | 16 | 255 | 0.0 | 0.0 | 0.00 | 0.00 | 0.00 | 80 | 1010.6 |
| 20260510014604 | 17 | 255 | 0.0 | 0.0 | 0.00 | 0.00 | 0.00 | 80 | 1010.5 |
| 20260510014102 | 17 | 255 | 0.0 | 0.0 | 0.00 | 0.00 | 0.00 | 79 | 1010.4 |
| 20260510013555 | 17 | 255 | 0.0 | 0.0 | 0.00 | 0.00 | 0.00 | 78 | 1010.4 |
| 20260510013052 | 17 | 255 | 0.0 | 0.0 | 0.00 | 0.00 | 0.00 | 77 | 1010.4 |
| 20260510012545 | 17 | 255 | 0.0 | 0.0 | 0.00 | 0.00 | 0.00 | 77 | 1010.2 |
| 20260510012042 | 17 | 255 | 0.0 | 0.0 | 0.00 | 0.00 | 0.00 | 76 | 1010.2 |
| 20260510011542 | 17 | 255 | 0.0 | 0.0 | 0.00 | 0.00 | 0.00 | 75 | 1010.2 |
| 20260510011038 | 17 | 255 | 0.0 | 0.0 | 0.00 | 0.00 | 0.00 | 75 | 1010.1 |
| 20260510010535 | 18 | 255 | 0.0 | 0.0 | 0.00 | 0.00 | 0.00 | 74 | 1010.1 |
| 20260510010032 | 18 | 255 | 0.0 | 3.2 | 0.00 | 0.00 | 0.00 | 73 | 1010.1 |
| 20260510005527 | 18 | 20 | 0.0 | 0.0 | 0.00 | 0.00 | 0.00 | 73 | 1010.2 |
| 20260510005026 | 18 | 180 | 0.0 | 1.6 | 0.00 | 0.00 | 0.00 | 73 | 1009.9 |
| 20260510004523 | 18 | 195 | 0.0 | 3.2 | 0.00 | 0.00 | 0.00 | 71 | 1010.0 |
| 20260510004021 | 18 | 180 | 0.0 | 1.6 | 0.00 | 0.00 | 0.00 | 70 | 1009.9 |
| 20260510003517 | 18 | 180 | 0.0 | 0.0 | 0.00 | 0.00 | 0.00 | 70 | 1009.8 |
| 20260510003012 | 19 | 180 | 0.0 | 0.0 | 0.00 | 0.00 | 0.00 | 69 | 1009.8 |
| 20260510002508 | 19 | 180 | 0.0 | 0.0 | 0.00 | 0.00 | 0.00 | 68 | 1009.6 |
| 20260510002005 | 20 | 180 | 0.0 | 0.0 | 0.00 | 0.00 | 0.00 | 67 | 1009.7 |
| 20260510001503 | 20 | 180 | 0.0 | 0.0 | 0.00 | 0.00 | 0.00 | 66 | 1009.6 |
| 20260510001001 | 20 | 180 | 0.0 | 0.0 | 0.00 | 0.00 | 0.00 | 65 | 1009.4 |
| 20260510000456 | 20 | 180 | 0.0 | 0.0 | 0.00 | 0.00 | 0.00 | 65 | 1009.5 |
| 20260509235952 | 21 | 180 | 0.0 | 1.6 | 0.00 | 0.00 | 0.00 | 63 | 1009.2 |
| 20260509235449 | 21 | 180 | 0.0 | 0.0 | 0.00 | 0.00 | 0.00 | 62 | 1009.4 |
| 20260509234945 | 21 | 180 | 0.0 | 0.0 | 0.00 | 0.00 | 0.00 | 61 | 1009.2 |
| 20260509234442 | 21 | 187 | 0.0 | 0.0 | 0.00 | 0.00 | 0.00 | 61 | 1009.2 |
| 20260509233940 | 22 | 187 | 0.0 | 1.6 | 0.00 | 0.00 | 0.00 | 59 | 1009.6 |
| 20260509233438 | 22 | 203 | 0.0 | 4.8 | 0.00 | 0.00 | 0.00 | 57 | 1009.1 |
| 20260509232933 | 22 | 180 | 0.0 | 3.2 | 0.00 | 0.00 | 0.00 | 57 | 1009.4 |
| 20260509232432 | 23 | 270 | 1.6 | 4.8 | 0.00 | 0.00 | 0.00 | 55 | 1009.4 |
| 20260509231927 | 23 | 286 | 0.0 | 3.2 | 0.00 | 0.00 | 0.00 | 54 | 1009.2 |
| 20260509231424 | 23 | 263 | 1.6 | 4.8 | 0.00 | 0.00 | 0.00 | 54 | 1009.3 |
| 20260509230922 | 23 | 195 | 3.2 | 11.3 | 0.00 | 0.00 | 0.00 | 54 | 1009.2 |
| 20260509230419 | 23 | 162 | 0.0 | 4.8 | 0.00 | 0.00 | 0.00 | 55 | 1009.2 |
| 20260509225915 | 24 | 201 | 0.0 | 3.2 | 0.00 | 0.00 | 0.00 | 53 | 1009.1 |
| 20260509225411 | 24 | 84 | 0.0 | 3.2 | 0.00 | 0.00 | 0.00 | 54 | 1009.1 |
| 20260509224907 | 24 | 212 | 3.2 | 6.4 | 0.00 | 0.00 | 0.00 | 53 | 1009.1 |
| 20260509224403 | 25 | 345 | 1.6 | 6.4 | 0.00 | 0.00 | 0.00 | 50 | 1009.1 |
| 20260509223901 | 26 | 209 | 4.8 | 4.8 | 0.00 | 0.00 | 0.00 | 48 | 1009.1 |
| 20260509223357 | 26 | 249 | 0.0 | 4.8 | 0.00 | 0.00 | 0.00 | 49 | 1009.3 |
| 20260509222854 | 25 | 192 | 0.0 | 6.4 | 0.00 | 0.00 | 0.00 | 50 | 1009.0 |
| 20260509222355 | 25 | 353 | 0.0 | 4.8 | 0.00 | 0.00 | 0.00 | 52 | 1009.3 |
| 20260509221850 | 26 | 225 | 3.2 | 6.4 | 0.00 | 0.00 | 0.00 | 49 | 1009.1 |
| 20260509221348 | 26 | 254 | 0.0 | 4.8 | 0.00 | 0.00 | 0.00 | 50 | 1009.3 |
| 20260509220843 | 24 | 306 | 1.6 | 4.8 | 0.00 | 0.00 | 0.00 | 52 | 1009.1 |
| 20260509220339 | 24 | 238 | 4.8 | 8.0 | 0.00 | 0.00 | 0.00 | 52 | 1008.9 |
| 20260509215835 | 24 | 300 | 3.2 | 4.8 | 0.00 | 0.00 | 0.00 | 51 | 1009.2 |
| 20260509215332 | 24 | 270 | 3.2 | 11.3 | 0.00 | 0.00 | 0.00 | 51 | 1009.1 |
| 20260509214829 | 25 | 229 | 3.2 | 6.4 | 0.00 | 0.00 | 0.00 | 49 | 1008.9 |
| 20260509214326 | 25 | 267 | 0.0 | 9.7 | 0.00 | 0.00 | 0.00 | 48 | 1009.1 |
| 20260509213823 | 26 | 227 | 4.8 | 6.4 | 0.00 | 0.00 | 0.00 | 50 | 1008.9 |
| 20260509213318 | 25 | 265 | 3.2 | 11.3 | 0.00 | 0.00 | 0.00 | 49 | 1009.1 |
| 20260509212816 | 25 | 124 | 3.2 | 8.0 | 0.00 | 0.00 | 0.00 | 49 | 1009.1 |
| 20260509212314 | 25 | 217 | 3.2 | 11.3 | 0.00 | 0.00 | 0.00 | 49 | 1009.0 |
| 20260509211809 | 26 | 270 | 4.8 | 9.7 | 0.00 | 0.00 | 0.00 | 47 | 1008.7 |
| 20260509211305 | 26 | 300 | 4.8 | 4.8 | 0.00 | 0.00 | 0.00 | 47 | 1008.9 |
| 20260509210802 | 26 | 348 | 0.0 | 12.9 | 0.00 | 0.00 | 0.00 | 49 | 1009.0 |
| 20260509210300 | 25 | 215 | 1.6 | 14.5 | 0.00 | 0.00 | 0.00 | 49 | 1009.1 |
| 20260509205759 | 25 | 270 | 1.6 | 12.9 | 0.00 | 0.00 | 0.00 | 49 | 1009.0 |
| 20260509205254 | 25 | 135 | 6.4 | 8.0 | 0.00 | 0.00 | 0.00 | 48 | 1009.0 |
| 20260509204750 | 25 | 204 | 3.2 | 19.3 | 0.00 | 0.00 | 0.00 | 50 | 1009.0 |
| 20260509204247 | 25 | 274 | 8.0 | 14.5 | 0.00 | 0.00 | 0.00 | 48 | 1008.8 |
| 20260509203743 | 25 | 233 | 9.7 | 11.3 | 0.00 | 0.00 | 0.00 | 47 | 1008.9 |
| 20260509203241 | 26 | 209 | 4.8 | 9.7 | 0.00 | 0.00 | 0.00 | 48 | 1008.8 |
| 20260509202736 | 26 | 204 | 6.4 | 9.7 | 0.00 | 0.00 | 0.00 | 46 | 1008.9 |
| 20260509202233 | 26 | 270 | 3.2 | 3.2 | 0.00 | 0.00 | 0.00 | 46 | 1008.9 |
| 20260509201727 | 26 | 112 | 3.2 | 8.0 | 0.00 | 0.00 | 0.00 | 46 | 1009.1 |
| 20260509201224 | 25 | 268 | 6.4 | 11.3 | 0.00 | 0.00 | 0.00 | 49 | 1009.2 |
| 20260509200720 | 25 | 291 | 9.7 | 12.9 | 0.00 | 0.00 | 0.00 | 47 | 1009.2 |
| 20260509200215 | 24 | 248 | 4.8 | 8.0 | 0.00 | 0.00 | 0.00 | 50 | 1009.2 |
| 20260509195711 | 24 | 157 | 4.8 | 12.9 | 0.00 | 0.00 | 0.00 | 50 | 1009.0 |
| 20260509195207 | 23 | 330 | 4.8 | 8.0 | 0.00 | 0.00 | 0.00 | 50 | 1009.3 |
| 20260509194701 | 23 | 278 | 4.8 | 12.9 | 0.00 | 0.00 | 0.00 | 51 | 1009.3 |
| 20260509194158 | 23 | 208 | 3.2 | 11.3 | 0.00 | 0.00 | 0.00 | 51 | 1009.4 |
| 20260509193654 | 23 | 252 | 4.8 | 9.7 | 0.00 | 0.00 | 0.00 | 51 | 1009.6 |
| 20260509193149 | 23 | 255 | 4.8 | 6.4 | 0.00 | 0.00 | 0.00 | 51 | 1009.5 |
| 20260509192646 | 23 | 281 | 4.8 | 4.8 | 0.00 | 0.00 | 0.00 | 49 | 1009.5 |
| 20260509192141 | 24 | 233 | 4.8 | 4.8 | 0.00 | 0.00 | 0.00 | 50 | 1009.5 |
| 20260509191641 | 23 | 103 | 0.0 | 16.1 | 0.00 | 0.00 | 0.00 | 49 | 1009.6 |
| 20260509191138 | 25 | 81 | 0.0 | 14.5 | 0.00 | 0.00 | 0.00 | 47 | 1009.8 |
| 20260509190635 | 26 | 311 | 3.2 | 9.7 | 0.00 | 0.00 | 0.00 | 46 | 1009.7 |
| 20260509190132 | 25 | 326 | 6.4 | 8.0 | 0.00 | 0.00 | 0.00 | 48 | 1009.6 |
| 20260509185630 | 25 | 229 | 0.0 | 17.7 | 0.00 | 0.00 | 0.00 | 48 | 1009.7 |
| 20260509185126 | 25 | 66 | 3.2 | 9.7 | 0.00 | 0.00 | 0.00 | 49 | 1009.9 |
| 20260509184624 | 23 | 210 | 3.2 | 8.0 | 0.00 | 0.00 | 0.00 | 49 | 1010.0 |
| 20260509184120 | 25 | 255 | 4.8 | 12.9 | 0.00 | 0.00 | 0.00 | 48 | 1010.1 |
| 20260509183616 | 25 | 321 | 9.7 | 9.7 | 0.00 | 0.00 | 0.00 | 48 | 1010.3 |
| 20260509183112 | 25 | 164 | 9.7 | 14.5 | 0.00 | 0.00 | 0.00 | 48 | 1010.2 |
| 20260509182608 | 24 | 294 | 0.0 | 11.3 | 0.00 | 0.00 | 0.00 | 48 | 1010.1 |
| 20260509182105 | 24 | 121 | 3.2 | 9.7 | 0.00 | 0.00 | 0.00 | 51 | 1010.3 |
| 20260509181603 | 25 | 193 | 4.8 | 4.8 | 0.00 | 0.00 | 0.00 | 50 | 1010.2 |
| 20260509181100 | 24 | 291 | 8.0 | 9.7 | 0.00 | 0.00 | 0.00 | 48 | 1010.5 |
| 20260509180556 | 23 | 258 | 0.0 | 8.0 | 0.00 | 0.00 | 0.00 | 52 | 1010.4 |
| 20260509180054 | 24 | 264 | 3.2 | 9.7 | 0.00 | 0.00 | 0.00 | 50 | 1010.4 |